Time;durP1;ratioP1;P1;durP2;ratioP2;P2;SDS_P1;SDS_P2;PMS_P1;PMS_P2;Temp;Humidity;BMP_temperature;BMP_pressure;BME280_temperature;BME280_humidity;BME280_pressure;Samples;Min_cycle;Max_cycle;Signal;HPM_P1;HPM_P2
2022/06/14 00:03:01;;;;;;;3.33;1.90;;;;;;;;;;5049003;28;20067;-72
2022/06/14 00:05:26;;;;;;;3.13;2.13;;;;;;;;;;5049045;28;20072;-71
2022/06/14 00:07:51;;;;;;;3.90;1.95;;;;;;;;;;5048765;28;20108;-70
2022/06/14 00:10:17;;;;;;;4.93;1.77;;;;;;;;;;5048494;28;20044;-71
2022/06/14 00:12:42;;;;;;;3.83;2.03;;;;;;;;;;5048663;28;20112;-71
2022/06/14 00:15:09;;;;;;;2.53;1.70;;;;;;;;;;5048752;28;20059;-71
2022/06/14 00:17:34;;;;;;;6.97;2.25;;;;;;;;;;5048510;28;20029;-72
2022/06/14 00:19:59;;;;;;;2.97;1.75;;;;;;;;;;5048861;28;20017;-71
2022/06/14 00:22:24;;;;;;;3.28;1.90;;;;;;;;;;5048519;28;20029;-71
2022/06/14 00:24:50;;;;;;;3.35;2.15;;;;;;;;;;5048455;28;20115;-71
2022/06/14 00:27:15;;;;;;;4.10;1.90;;;;;;;;;;5048319;28;20091;-71
2022/06/14 00:29:40;;;;;;;4.38;1.90;;;;;;;;;;5048202;28;20135;-72
2022/06/14 00:32:06;;;;;;;3.88;1.88;;;;;;;;;;5048349;28;20087;-71
2022/06/14 00:34:31;;;;;;;4.85;1.73;;;;;;;;;;5048386;28;20260;-71
2022/06/14 00:36:57;;;;;;;3.05;1.70;;;;;;;;;;5048318;28;20025;-72
2022/06/14 00:39:23;;;;;;;5.57;1.88;;;;;;;;;;5048078;28;20033;-72
2022/06/14 00:41:52;;;;;;;3.55;2.17;;;;;;;;;;5048252;28;20036;-71
2022/06/14 00:44:26;;;;;;;3.00;1.52;;;;;;;;;;5048204;28;20414;-71
2022/06/14 00:47:09;;;;;;;6.05;1.63;;;;;;;;;;5048141;28;20029;-72
2022/06/14 00:49:34;;;;;;;1.50;1.40;;;;;;;;;;5048085;28;20032;-71
2022/06/14 00:52:07;;;;;;;2.13;1.40;;;;;;;;;;5048063;28;20040;-71
2022/06/14 00:54:40;;;;;;;2.83;1.60;;;;;;;;;;5048673;28;20124;-71
2022/06/14 00:57:17;;;;;;;3.15;1.73;;;;;;;;;;5048090;28;20025;-70
2022/06/14 00:59:48;;;;;;;2.30;1.65;;;;;;;;;;5048028;28;20108;-70
2022/06/14 01:02:21;;;;;;;2.97;1.70;;;;;;;;;;5048493;28;20100;-71
2022/06/14 01:04:47;;;;;;;3.00;1.55;;;;;;;;;;5051237;28;20024;-71
2022/06/14 01:07:41;;;;;;;4.53;1.80;;;;;;;;;;5052123;28;20040;-70
2022/06/14 01:10:10;;;;;;;2.67;1.92;;;;;;;;;;5050540;28;20048;-71
2022/06/14 01:12:40;;;;;;;1.85;1.38;;;;;;;;;;5052083;28;20033;-71
2022/06/14 01:15:24;;;;;;;2.42;1.75;;;;;;;;;;5052088;28;20041;-72
2022/06/14 01:18:11;;;;;;;2.42;1.75;;;;;;;;;;5051915;28;20029;-71
2022/06/14 01:20:37;;;;;;;1.98;1.75;;;;;;;;;;5052059;28;20390;-72
2022/06/14 01:23:04;;;;;;;2.13;1.67;;;;;;;;;;5051698;28;20450;-72
2022/06/14 01:25:33;;;;;;;1.95;1.70;;;;;;;;;;5051902;28;20028;-71
2022/06/14 01:28:02;;;;;;;4.10;1.55;;;;;;;;;;5051975;28;20064;-71
2022/06/14 01:30:31;;;;;;;5.63;1.80;;;;;;;;;;5051702;28;20029;-72
2022/06/14 01:33:00;;;;;;;2.85;1.95;;;;;;;;;;5052110;28;20489;-71
2022/06/14 01:35:32;;;;;;;2.15;1.50;;;;;;;;;;5051705;28;20029;-72
2022/06/14 01:38:01;;;;;;;2.33;1.80;;;;;;;;;;5050493;28;20032;-71
2022/06/14 01:40:52;;;;;;;3.67;1.73;;;;;;;;;;5051461;28;20021;-71
2022/06/14 01:43:37;;;;;;;2.83;1.60;;;;;;;;;;5051601;28;20101;-71
2022/06/14 01:46:14;;;;;;;3.88;1.55;;;;;;;;;;5050139;28;20032;-71
2022/06/14 01:48:45;;;;;;;2.25;1.40;;;;;;;;;;5051422;28;20449;-71
2022/06/14 01:51:51;;;;;;;1.55;1.30;;;;;;;;;;5043553;28;20146;-71
2022/06/14 01:54:22;;;;;;;3.08;1.50;;;;;;;;;;5051383;28;20044;-71
2022/06/14 01:57:12;;;;;;;1.92;1.35;;;;;;;;;;5051263;28;20490;-71
2022/06/14 01:59:50;;;;;;;4.57;1.60;;;;;;;;;;5051105;28;20487;-71
2022/06/14 02:02:28;;;;;;;2.22;1.20;;;;;;;;;;5051249;28;20060;-71
2022/06/14 02:05:13;;;;;;;3.00;1.63;;;;;;;;;;5051044;28;20298;-72
2022/06/14 02:08:00;;;;;;;3.75;1.95;;;;;;;;;;5051166;28;20037;-72
2022/06/14 02:10:37;;;;;;;3.38;1.67;;;;;;;;;;5051181;28;20550;-72
2022/06/14 02:13:26;;;;;;;3.55;1.70;;;;;;;;;;5051397;28;20036;-71
2022/06/14 02:16:06;;;;;;;2.58;1.92;;;;;;;;;;5050581;28;20386;-72
2022/06/14 02:18:50;;;;;;;3.55;1.70;;;;;;;;;;5051087;28;20025;-71
2022/06/14 02:21:15;;;;;;;3.88;1.48;;;;;;;;;;5051370;28;20048;-71
2022/06/14 02:23:45;;;;;;;5.30;1.70;;;;;;;;;;5050750;28;20486;-71
2022/06/14 02:26:17;;;;;;;1.95;1.50;;;;;;;;;;5050414;28;20039;-71
2022/06/14 02:29:04;;;;;;;4.47;1.50;;;;;;;;;;5050487;28;20082;-70
2022/06/14 02:31:36;;;;;;;4.03;1.70;;;;;;;;;;5050606;28;20102;-71
2022/06/14 02:34:06;;;;;;;4.60;2.10;;;;;;;;;;5050378;28;20047;-71
2022/06/14 02:37:04;;;;;;;3.08;1.70;;;;;;;;;;5050536;28;20269;-71
2022/06/14 02:39:35;;;;;;;3.97;1.80;;;;;;;;;;5017768;28;20439;-71
2022/06/14 02:42:07;;;;;;;2.40;1.55;;;;;;;;;;5050889;28;20029;-72
2022/06/14 02:44:42;;;;;;;2.97;1.88;;;;;;;;;;5050587;28;20040;-71
2022/06/14 02:47:22;;;;;;;3.97;1.80;;;;;;;;;;5050539;28;20037;-71
2022/06/14 02:50:05;;;;;;;3.92;1.90;;;;;;;;;;5050191;28;20024;-72
2022/06/14 02:52:37;;;;;;;3.50;1.45;;;;;;;;;;5050329;28;20024;-71
2022/06/14 02:55:12;;;;;;;3.33;1.90;;;;;;;;;;5050483;28;20501;-71
2022/06/14 02:57:46;;;;;;;4.40;1.63;;;;;;;;;;5050123;28;20036;-72
2022/06/14 03:00:24;;;;;;;2.92;1.60;;;;;;;;;;5049947;28;20017;-71
2022/06/14 03:03:13;;;;;;;2.75;1.60;;;;;;;;;;5050062;28;20149;-71
2022/06/14 03:05:45;;;;;;;1.95;1.50;;;;;;;;;;5050100;28;20053;-72
2022/06/14 03:08:13;;;;;;;3.67;1.90;;;;;;;;;;5049614;28;20135;-71
2022/06/14 03:11:16;;;;;;;4.05;1.80;;;;;;;;;;5050006;28;20691;-71
2022/06/14 03:14:11;;;;;;;2.80;1.90;;;;;;;;;;5049765;28;20029;-72
2022/06/14 03:17:07;;;;;;;3.20;1.80;;;;;;;;;;5050153;28;20039;-71
2022/06/14 03:19:44;;;;;;;4.80;2.10;;;;;;;;;;5049552;28;20036;-71
2022/06/14 03:22:17;;;;;;;2.40;1.95;;;;;;;;;;5049967;28;20025;-71
2022/06/14 03:25:15;;;;;;;5.50;2.30;;;;;;;;;;5049638;28;20032;-71
2022/06/14 03:27:44;;;;;;;2.50;1.70;;;;;;;;;;5048435;28;20102;-71
2022/06/14 03:30:19;;;;;;;2.20;2.00;;;;;;;;;;5049140;28;20335;-71
2022/06/14 03:32:52;;;;;;;4.68;2.15;;;;;;;;;;5049613;28;20025;-71
2022/06/14 03:35:26;;;;;;;;;;;;;;;;;;5050030;28;20529;-71
2022/06/14 03:37:52;;;;;;;;;;;;;;;;;;5050153;28;19955;-71
2022/06/14 03:40:21;;;;;;;4.53;2.15;;;;;;;;;;5049454;28;19912;-71
2022/06/14 03:42:46;;;;;;;4.05;2.00;;;;;;;;;;5049340;28;20025;-72
2022/06/14 03:45:16;;;;;;;3.50;1.90;;;;;;;;;;5049239;28;20401;-72
2022/06/14 03:47:41;;;;;;;2.53;2.00;;;;;;;;;;5049176;28;20032;-72
2022/06/14 03:50:26;;;;;;;4.13;2.05;;;;;;;;;;5048823;28;20055;-71
2022/06/14 03:53:25;;;;;;;4.05;2.05;;;;;;;;;;5049157;28;20017;-71
2022/06/14 03:56:15;;;;;;;4.00;2.17;;;;;;;;;;5049053;28;20108;-72
2022/06/14 03:59:02;;;;;;;4.20;2.22;;;;;;;;;;5048719;28;20082;-71
2022/06/14 04:01:32;;;;;;;3.10;2.53;;;;;;;;;;5048811;28;20074;-71
2022/06/14 04:04:32;;;;;;;3.90;2.75;;;;;;;;;;5049029;28;20028;-72
2022/06/14 04:07:03;;;;;;;4.18;2.10;;;;;;;;;;5017251;28;20041;-72
2022/06/14 04:09:28;;;;;;;6.13;2.30;;;;;;;;;;5048663;28;20031;-72
2022/06/14 04:12:32;;;;;;;3.75;1.92;;;;;;;;;;5048640;28;20033;-71
2022/06/14 04:15:10;;;;;;;4.82;2.08;;;;;;;;;;5048672;28;20225;-70
2022/06/14 04:17:48;;;;;;;5.63;2.00;;;;;;;;;;5048705;28;20091;-70
2022/06/14 04:20:21;;;;;;;5.40;1.90;;;;;;;;;;5048804;28;20025;-71
2022/06/14 04:22:53;;;;;;;5.82;2.25;;;;;;;;;;5048714;28;20205;-71
2022/06/14 04:25:33;;;;;;;3.25;1.77;;;;;;;;;;5048419;28;20041;-71
2022/06/14 04:28:32;;;;;;;6.95;3.10;;;;;;;;;;5048601;28;20127;-72
2022/06/14 04:31:28;;;;;;;3.47;2.60;;;;;;;;;;5048504;28;20083;-71
2022/06/14 04:34:17;;;;;;;3.40;2.50;;;;;;;;;;5014703;28;20109;-71
2022/06/14 04:36:55;;;;;;;6.15;2.10;;;;;;;;;;5048513;28;20094;-72
2022/06/14 04:39:27;;;;;;;6.22;2.35;;;;;;;;;;5047999;28;20086;-72
2022/06/14 04:42:01;;;;;;;2.45;2.25;;;;;;;;;;5048424;28;20017;-72
2022/06/14 04:44:40;;;;;;;2.65;2.42;;;;;;;;;;5048424;28;20028;-72
2022/06/14 04:47:14;;;;;;;4.20;2.28;;;;;;;;;;5048214;28;20021;-72
2022/06/14 04:49:50;;;;;;;9.35;3.00;;;;;;;;;;5048166;28;20390;-72
2022/06/14 04:52:40;;;;;;;3.85;2.10;;;;;;;;;;5048365;28;20064;-72
2022/06/14 04:55:18;;;;;;;3.60;2.00;;;;;;;;;;5048169;28;20048;-72
2022/06/14 04:57:48;;;;;;;2.60;1.90;;;;;;;;;;5048015;28;20083;-72
2022/06/14 05:00:18;;;;;;;3.33;2.08;;;;;;;;;;5048122;28;20079;-72
2022/06/14 05:02:54;;;;;;;2.42;1.90;;;;;;;;;;5048129;28;20604;-72
2022/06/14 05:05:28;;;;;;;5.45;2.00;;;;;;;;;;5047981;28;20499;-72
2022/06/14 05:08:05;;;;;;;5.63;1.90;;;;;;;;;;5046773;28;20510;-72
2022/06/14 05:10:42;;;;;;;3.13;1.98;;;;;;;;;;5047723;28;20053;-72
2022/06/14 05:13:36;;;;;;;5.78;2.17;;;;;;;;;;5047848;28;20383;-72
2022/06/14 05:16:09;;;;;;;3.90;2.10;;;;;;;;;;5047869;28;20435;-72
2022/06/14 05:18:44;;;;;;;5.97;2.22;;;;;;;;;;5047785;28;20078;-71
2022/06/14 05:21:28;;;;;;;2.65;1.95;;;;;;;;;;5047779;28;20045;-72
2022/06/14 05:23:56;;;;;;;3.97;2.50;;;;;;;;;;5047858;28;20061;-72
2022/06/14 05:27:01;;;;;;;5.82;2.45;;;;;;;;;;5047730;28;20037;-72
2022/06/14 05:29:55;;;;;;;3.35;2.00;;;;;;;;;;5047436;28;20922;-72
2022/06/14 05:32:35;;;;;;;2.35;2.10;;;;;;;;;;5028023;28;20052;-71
2022/06/14 05:35:27;;;;;;;5.47;2.47;;;;;;;;;;5027825;28;20045;-72
2022/06/14 05:38:11;;;;;;;3.97;2.10;;;;;;;;;;5027712;28;20025;-72
2022/06/14 05:40:57;;;;;;;4.13;2.53;;;;;;;;;;5027633;28;20021;-72
2022/06/14 05:43:49;;;;;;;4.80;2.65;;;;;;;;;;5027718;28;20065;-72
2022/06/14 05:46:17;;;;;;;3.45;2.10;;;;;;;;;;5034769;28;20021;-71
2022/06/14 05:48:48;;;;;;;4.57;2.00;;;;;;;;;;5047521;28;20355;-72
2022/06/14 05:51:17;;;;;;;2.90;2.10;;;;;;;;;;5050838;28;20028;-71
2022/06/14 05:54:05;;;;;;;3.35;1.90;;;;;;;;;;5051277;28;20024;-72
2022/06/14 05:56:59;;;;;;;4.72;1.83;;;;;;;;;;5051482;28;20059;-72
2022/06/14 05:59:33;;;;;;;2.95;1.90;;;;;;;;;;5050206;28;20031;-73
2022/06/14 06:02:08;;;;;;;3.85;1.65;;;;;;;;;;5044588;28;20051;-70
2022/06/14 06:04:39;;;;;;;4.55;1.95;;;;;;;;;;5034304;28;20484;-73
2022/06/14 06:07:09;;;;;;;2.35;1.50;;;;;;;;;;5045932;28;20035;-73
2022/06/14 06:09:41;;;;;;;2.92;1.45;;;;;;;;;;5042071;28;20024;-73
2022/06/14 06:12:17;;;;;;;4.73;1.80;;;;;;;;;;5044723;28;20568;-72
2022/06/14 06:14:49;;;;;;;3.30;1.30;;;;;;;;;;5044591;28;20025;-71
2022/06/14 06:17:30;;;;;;;13.63;1.80;;;;;;;;;;5033638;28;20028;-71
2022/06/14 06:20:13;;;;;;;6.43;1.50;;;;;;;;;;5037714;28;20520;-72
2022/06/14 06:22:45;;;;;;;2.55;1.30;;;;;;;;;;5039852;28;20033;-70
2022/06/14 06:25:25;;;;;;;3.73;1.43;;;;;;;;;;5041029;28;20132;-72
2022/06/14 06:28:08;;;;;;;4.13;1.60;;;;;;;;;;5047026;28;20532;-72
2022/06/14 06:30:39;;;;;;;5.07;1.50;;;;;;;;;;5044549;28;20044;-71
2022/06/14 06:33:06;;;;;;;2.13;1.40;;;;;;;;;;5044440;28;20028;-72
2022/06/14 06:35:43;;;;;;;2.97;1.50;;;;;;;;;;5042536;28;20433;-70
2022/06/14 06:38:24;;;;;;;5.28;1.10;;;;;;;;;;5043500;28;20017;-70
2022/06/14 06:43:44;;;;;;;3.10;1.45;;;;;;;;;;5046221;28;20389;-71
2022/06/14 06:46:14;;;;;;;4.07;1.60;;;;;;;;;;5041402;28;20027;-70
2022/06/14 06:48:44;;;;;;;7.25;2.00;;;;;;;;;;5041805;28;20029;-71
2022/06/14 06:51:15;;;;;;;2.70;1.40;;;;;;;;;;5045222;28;20029;-71
2022/06/14 06:53:52;;;;;;;7.50;1.55;;;;;;;;;;5045909;28;20029;-70
2022/06/14 06:56:24;;;;;;;3.10;1.35;;;;;;;;;;5039460;28;20639;-70
2022/06/14 06:59:01;;;;;;;5.43;1.65;;;;;;;;;;5037502;28;20033;-72
2022/06/14 07:01:34;;;;;;;4.03;1.50;;;;;;;;;;5044800;28;20036;-70
2022/06/14 07:05:03;;;;;;;3.22;1.55;;;;;;;;;;5045796;28;20553;-72
2022/06/14 07:07:22;;;;;;;2.47;1.42;;;;;;;;;;5045399;28;20036;-70
2022/06/14 07:09:55;;;;;;;3.42;1.27;;;;;;;;;;5044734;28;20082;-71
2022/06/14 07:12:44;;;;;;;9.00;1.95;;;;;;;;;;5038050;28;20040;-70
2022/06/14 07:15:19;;;;;;;5.80;1.75;;;;;;;;;;5044492;28;20128;-70
2022/06/14 07:18:14;;;;;;;5.47;1.73;;;;;;;;;;5044080;28;20054;-71
2022/06/14 07:20:48;;;;;;;5.50;1.90;;;;;;;;;;5028820;28;20071;-72
2022/06/14 07:23:20;;;;;;;3.47;1.27;;;;;;;;;;5048567;28;20025;-73
2022/06/14 07:25:56;;;;;;;5.38;1.92;;;;;;;;;;5045868;28;20036;-73
2022/06/14 07:28:48;;;;;;;5.47;1.40;;;;;;;;;;5044967;28;20545;-72
2022/06/14 07:31:32;;;;;;;3.72;1.55;;;;;;;;;;5045148;28;20040;-71
2022/06/14 07:33:59;;;;;;;7.55;1.70;;;;;;;;;;5045242;28;20171;-72
2022/06/14 07:36:50;;;;;;;7.40;1.60;;;;;;;;;;5043574;28;20056;-72
2022/06/14 07:39:35;;;;;;;4.80;1.58;;;;;;;;;;5037259;28;20066;-72
2022/06/14 07:42:11;;;;;;;4.03;1.50;;;;;;;;;;5048735;28;20368;-72
2022/06/14 07:44:45;;;;;;;7.68;1.85;;;;;;;;;;5044659;28;20029;-72
2022/06/14 07:47:23;;;;;;;8.77;2.00;;;;;;;;;;5043749;28;20029;-71
2022/06/14 07:49:54;;;;;;;5.50;1.67;;;;;;;;;;5044353;28;20033;-73
2022/06/14 07:52:19;;;;;;;3.85;1.40;;;;;;;;;;5047289;28;20459;-73
2022/06/14 07:54:50;;;;;;;3.37;1.10;;;;;;;;;;5043737;28;20067;-73
2022/06/14 07:57:32;;;;;;;5.28;1.60;;;;;;;;;;5036195;28;20036;-73
2022/06/14 08:02:59;;;;;;;4.30;1.20;;;;;;;;;;5046692;28;20109;-72
2022/06/14 08:05:30;;;;;;;2.33;1.20;;;;;;;;;;5044660;28;20041;-72
2022/06/14 08:08:00;;;;;;;5.38;1.45;;;;;;;;;;5035833;28;20117;-72
2022/06/14 08:10:32;;;;;;;2.72;1.00;;;;;;;;;;5043635;28;20036;-73
2022/06/14 08:13:07;;;;;;;6.50;1.40;;;;;;;;;;5044805;28;20487;-73
2022/06/14 08:15:44;;;;;;;3.63;1.40;;;;;;;;;;5043274;28;20124;-73
2022/06/14 08:18:12;;;;;;;4.75;1.33;;;;;;;;;;5044593;28;20024;-74
2022/06/14 08:20:48;;;;;;;4.65;1.20;;;;;;;;;;5044665;28;20029;-72
2022/06/14 08:23:45;;;;;;;2.45;1.20;;;;;;;;;;5042108;28;20400;-73
2022/06/14 08:26:19;;;;;;;3.08;0.98;;;;;;;;;;5044459;28;20513;-73
2022/06/14 08:29:23;;;;;;;3.53;1.20;;;;;;;;;;5043175;28;20044;-71
2022/06/14 08:31:55;;;;;;;2.80;0.80;;;;;;;;;;5018675;28;20048;-72
2022/06/14 08:34:54;;;;;;;4.30;1.20;;;;;;;;;;5035452;28;20383;-73
2022/06/14 08:37:26;;;;;;;2.55;1.20;;;;;;;;;;5021950;28;20041;-74
2022/06/14 08:40:13;;;;;;;5.32;1.40;;;;;;;;;;5042403;28;20162;-73
2022/06/14 08:42:48;;;;;;;3.08;1.27;;;;;;;;;;5042469;28;20108;-73
2022/06/14 08:45:27;;;;;;;2.58;1.85;;;;;;;;;;5042303;28;20025;-73
2022/06/14 08:48:01;;;;;;;2.08;1.08;;;;;;;;;;5042344;28;20017;-74
2022/06/14 08:50:51;;;;;;;3.95;1.15;;;;;;;;;;5043564;28;20025;-72
2022/06/14 08:53:33;;;;;;;1.33;1.00;;;;;;;;;;5043473;28;20029;-72
2022/06/14 08:56:19;;;;;;;2.65;1.40;;;;;;;;;;5039156;28;20032;-72
2022/06/14 08:58:56;;;;;;;2.85;1.10;;;;;;;;;;5044560;28;20398;-72
2022/06/14 09:01:43;;;;;;;3.90;1.35;;;;;;;;;;5035811;28;20029;-73
2022/06/14 09:04:50;;;;;;;2.80;1.10;;;;;;;;;;5044240;28;20025;-72
2022/06/14 09:07:35;;;;;;;4.30;1.20;;;;;;;;;;4989106;28;20030;-72
2022/06/14 09:10:30;;;;;;;3.75;1.13;;;;;;;;;;5044405;28;20025;-73
2022/06/14 09:13:17;;;;;;;3.80;1.00;;;;;;;;;;5043912;28;20068;-73
2022/06/14 09:16:01;;;;;;;3.22;1.10;;;;;;;;;;5044907;28;20021;-73
2022/06/14 09:18:55;;;;;;;3.10;1.13;;;;;;;;;;5042827;28;20021;-74
2022/06/14 09:22:04;;;;;;;4.50;1.48;;;;;;;;;;5035358;28;20458;-73
2022/06/14 09:24:29;;;;;;;3.33;1.30;;;;;;;;;;5033429;28;20175;-74
2022/06/14 09:27:00;;;;;;;2.10;1.00;;;;;;;;;;5045083;28;20490;-74
2022/06/14 09:29:54;;;;;;;4.30;1.35;;;;;;;;;;5046719;28;20032;-72
2022/06/14 09:33:09;;;;;;;4.78;1.60;;;;;;;;;;5047344;28;20032;-73
2022/06/14 09:35:46;;;;;;;4.22;1.30;;;;;;;;;;5042493;28;20114;-74
2022/06/14 09:38:48;;;;;;;3.40;1.20;;;;;;;;;;5047736;28;20033;-73
2022/06/14 09:41:16;;;;;;;4.72;1.30;;;;;;;;;;5046981;28;20534;-72
2022/06/14 09:43:58;;;;;;;2.45;1.10;;;;;;;;;;5045768;28;20028;-73
2022/06/14 09:46:45;;;;;;;3.00;1.25;;;;;;;;;;5043471;28;20394;-73
2022/06/14 09:49:32;;;;;;;3.08;1.17;;;;;;;;;;5044358;28;20041;-73
2022/06/14 09:52:15;;;;;;;2.95;1.20;;;;;;;;;;5044362;28;20025;-74
2022/06/14 09:54:41;;;;;;;3.10;1.20;;;;;;;;;;5046157;28;20537;-74
2022/06/14 09:57:23;;;;;;;2.57;1.10;;;;;;;;;;5048981;28;20040;-73
2022/06/14 10:00:21;;;;;;;2.00;1.20;;;;;;;;;;5045188;28;20056;-72
2022/06/14 10:03:38;;;;;;;3.85;1.10;;;;;;;;;;5040271;28;20491;-73
2022/06/14 10:06:37;;;;;;;3.33;1.20;;;;;;;;;;5044802;28;20475;-71
2022/06/14 10:09:30;;;;;;;2.20;1.15;;;;;;;;;;5042406;28;20024;-72
2022/06/14 10:12:36;;;;;;;2.40;1.20;;;;;;;;;;5046971;28;20042;-73
2022/06/14 10:15:02;;;;;;;3.17;1.13;;;;;;;;;;5046375;28;20025;-72
2022/06/14 10:17:50;;;;;;;4.40;1.27;;;;;;;;;;5053095;28;20506;-72
2022/06/14 10:20:24;;;;;;;2.30;1.23;;;;;;;;;;5048196;28;20082;-72
2022/06/14 10:23:06;;;;;;;2.75;1.00;;;;;;;;;;5049313;28;20471;-71
2022/06/14 10:28:42;;;;;;;1.95;1.00;;;;;;;;;;5045023;28;20521;-74
2022/06/14 10:31:21;;;;;;;1.52;0.98;;;;;;;;;;5050428;28;20596;-73
2022/06/14 10:33:50;;;;;;;3.15;0.90;;;;;;;;;;5050975;28;20078;-73
2022/06/14 10:36:47;;;;;;;2.50;1.20;;;;;;;;;;5050065;28;20040;-72
2022/06/14 10:39:34;;;;;;;1.98;1.20;;;;;;;;;;5050287;28;20041;-73
2022/06/14 10:42:35;;;;;;;2.03;1.00;;;;;;;;;;5050483;28;20410;-73
2022/06/14 10:45:26;;;;;;;4.38;1.10;;;;;;;;;;5048844;28;20031;-73
2022/06/14 10:48:21;;;;;;;2.72;1.08;;;;;;;;;;5050132;28;20036;-75
2022/06/14 10:51:01;;;;;;;2.30;1.10;;;;;;;;;;5050375;28;20049;-73
2022/06/14 10:53:50;;;;;;;2.72;1.23;;;;;;;;;;5050267;28;20021;-73
2022/06/14 10:56:34;;;;;;;2.30;1.10;;;;;;;;;;5050026;28;20032;-72
2022/06/14 10:59:28;;;;;;;2.30;1.27;;;;;;;;;;5049961;28;20254;-72
2022/06/14 11:02:35;;;;;;;2.25;1.15;;;;;;;;;;5047281;28;20013;-73
2022/06/14 11:05:25;;;;;;;4.28;1.30;;;;;;;;;;5048749;28;20029;-73
2022/06/14 11:08:12;;;;;;;2.13;1.10;;;;;;;;;;5049789;28;20024;-74
2022/06/14 11:10:50;;;;;;;4.60;1.08;;;;;;;;;;5046568;28;20025;-73
2022/06/14 11:13:35;;;;;;;4.38;1.00;;;;;;;;;;5045831;28;20139;-73
2022/06/14 11:16:09;;;;;;;3.40;1.05;;;;;;;;;;5050310;28;20402;-72
2022/06/14 11:19:01;;;;;;;1.45;0.90;;;;;;;;;;5049634;28;20441;-72
2022/06/14 11:21:44;;;;;;;2.03;1.02;;;;;;;;;;5048516;28;20024;-72
2022/06/14 11:24:09;;;;;;;2.53;1.10;;;;;;;;;;5049412;28;20025;-73
2022/06/14 11:26:44;;;;;;;2.80;1.00;;;;;;;;;;5061183;28;20043;-72
2022/06/14 11:29:30;;;;;;;3.15;1.13;;;;;;;;;;5069435;28;20348;-72
2022/06/14 11:32:02;;;;;;;2.13;1.30;;;;;;;;;;5050376;28;20043;-74
2022/06/14 11:34:27;;;;;;;2.17;0.93;;;;;;;;;;5047393;28;20024;-73
2022/06/14 11:37:11;;;;;;;2.05;1.00;;;;;;;;;;5048172;28;20025;-73
2022/06/14 11:39:42;;;;;;;2.03;1.00;;;;;;;;;;5048980;28;20040;-71
2022/06/14 11:42:16;;;;;;;;;;;;;;;;;;5048522;28;20048;-73
2022/06/14 11:44:53;;;;;;;2.65;0.85;;;;;;;;;;5049135;28;19913;-71
2022/06/14 11:47:50;;;;;;;1.80;0.93;;;;;;;;;;5048274;28;20035;-72
2022/06/14 11:50:34;;;;;;;2.10;0.93;;;;;;;;;;5048210;28;20057;-72
2022/06/14 11:53:16;;;;;;;2.15;1.10;;;;;;;;;;5046355;28;20028;-71
2022/06/14 11:56:17;;;;;;;1.38;0.90;;;;;;;;;;5042199;28;20039;-71
2022/06/14 11:58:42;;;;;;;3.13;1.10;;;;;;;;;;5036558;28;20118;-71
2022/06/14 12:01:50;;;;;;;1.50;0.90;;;;;;;;;;5044682;28;20040;-71
2022/06/14 12:04:29;;;;;;;3.22;1.00;;;;;;;;;;5047832;28;20130;-71
2022/06/14 12:07:10;;;;;;;3.25;1.45;;;;;;;;;;5048037;28;20025;-72
2022/06/14 12:09:37;;;;;;;2.33;1.02;;;;;;;;;;5046926;28;20694;-71
2022/06/14 12:12:24;;;;;;;2.78;1.15;;;;;;;;;;5047426;28;20033;-72
2022/06/14 12:14:55;;;;;;;4.35;1.38;;;;;;;;;;5048169;28;20033;-72
2022/06/14 12:17:27;;;;;;;3.10;1.35;;;;;;;;;;5046751;28;20024;-71
2022/06/14 12:19:56;;;;;;;;;;;;;;;;;;5048437;28;20437;-71
2022/06/14 12:22:28;;;;;;;2.38;1.17;;;;;;;;;;5046918;28;19908;-73
2022/06/14 12:27:43;;;;;;;6.53;1.30;;;;;;;;;;5048365;28;20210;-71
2022/06/14 12:30:10;;;;;;;2.92;1.00;;;;;;;;;;5047400;28;20048;-72
2022/06/14 12:32:43;;;;;;;4.65;1.30;;;;;;;;;;5048376;28;20039;-72
2022/06/14 12:35:17;;;;;;;2.05;1.30;;;;;;;;;;5046429;28;20062;-73
2022/06/14 12:37:52;;;;;;;1.33;1.10;;;;;;;;;;5047143;28;20039;-74
2022/06/14 12:40:43;;;;;;;1.98;1.25;;;;;;;;;;5039175;28;20267;-72
2022/06/14 12:43:19;;;;;;;1.73;0.90;;;;;;;;;;5047586;28;20048;-72
2022/06/14 12:45:47;;;;;;;1.75;1.10;;;;;;;;;;5044256;28;20036;-72
2022/06/14 12:48:21;;;;;;;2.42;1.10;;;;;;;;;;5044786;28;20402;-71
2022/06/14 12:50:51;;;;;;;4.75;1.33;;;;;;;;;;5045081;28;20064;-72
2022/06/14 12:53:30;;;;;;;2.53;1.10;;;;;;;;;;5047267;28;20313;-72
2022/06/14 12:56:01;;;;;;;4.25;1.40;;;;;;;;;;5045389;28;20025;-72
2022/06/14 12:58:30;;;;;;;4.80;1.20;;;;;;;;;;5046676;28;20078;-72
2022/06/14 13:01:09;;;;;;;2.38;1.00;;;;;;;;;;5047423;28;20044;-72
2022/06/14 13:03:41;;;;;;;1.88;1.00;;;;;;;;;;5047692;28;20372;-73
2022/06/14 13:06:21;;;;;;;1.80;1.13;;;;;;;;;;5046485;28;20051;-71
2022/06/14 13:09:30;;;;;;;2.08;1.25;;;;;;;;;;5046081;28;20033;-72
2022/06/14 13:12:25;;;;;;;2.53;1.20;;;;;;;;;;5028653;28;20599;-72
2022/06/14 13:15:16;;;;;;;4.53;1.20;;;;;;;;;;5045717;28;20043;-72
2022/06/14 13:18:06;;;;;;;2.13;1.23;;;;;;;;;;5037489;28;20108;-72
2022/06/14 13:20:53;;;;;;;4.72;1.35;;;;;;;;;;5041251;28;20060;-73
2022/06/14 13:23:44;;;;;;;2.55;1.20;;;;;;;;;;5047734;28;20064;-71
2022/06/14 13:26:21;;;;;;;2.28;1.10;;;;;;;;;;5046696;28;20567;-71
2022/06/14 13:29:22;;;;;;;1.42;1.10;;;;;;;;;;5046514;28;20037;-72
2022/06/14 13:31:53;;;;;;;1.90;1.10;;;;;;;;;;5043988;28;20052;-73
2022/06/14 13:34:43;;;;;;;2.25;0.90;;;;;;;;;;5027521;28;20025;-72
2022/06/14 13:37:45;;;;;;;3.35;1.20;;;;;;;;;;5027732;28;20464;-72
2022/06/14 13:40:15;;;;;;;;;;;;;;;;;;5046095;28;20036;-72
2022/06/14 13:42:53;;;;;;;3.42;0.93;;;;;;;;;;5046752;28;19964;-73
2022/06/14 13:45:39;;;;;;;2.03;1.30;;;;;;;;;;5047686;28;20040;-75
2022/06/14 13:48:07;;;;;;;2.08;0.93;;;;;;;;;;5047784;28;20503;-74
2022/06/14 13:50:39;;;;;;;3.20;1.42;;;;;;;;;;5046274;28;20112;-73
2022/06/14 13:53:10;;;;;;;;;;;;;;;;;;5045565;28;20025;-75
2022/06/14 13:55:47;;;;;;;6.03;1.33;;;;;;;;;;5047344;28;19920;-73
2022/06/14 13:58:19;;;;;;;3.38;1.00;;;;;;;;;;5044741;28;20036;-72
2022/06/14 14:01:08;;;;;;;4.05;1.30;;;;;;;;;;5047158;28;20025;-72
2022/06/14 14:03:59;;;;;;;2.55;1.05;;;;;;;;;;5046851;28;20029;-73
2022/06/14 14:06:40;;;;;;;1.57;1.00;;;;;;;;;;5024010;28;20080;-72
2022/06/14 14:09:30;;;;;;;2.33;1.00;;;;;;;;;;5043391;28;20033;-72
2022/06/14 14:12:18;;;;;;;1.25;1.10;;;;;;;;;;5047951;28;20039;-73
2022/06/14 14:14:59;;;;;;;2.45;1.00;;;;;;;;;;5049576;28;20025;-73
2022/06/14 14:17:35;;;;;;;1.88;1.13;;;;;;;;;;5043551;28;20362;-72
2022/06/14 14:20:38;;;;;;;2.15;1.05;;;;;;;;;;5047695;28;20039;-72
2022/06/14 14:23:20;;;;;;;4.07;1.00;;;;;;;;;;5050763;28;20025;-74
2022/06/14 14:25:48;;;;;;;;;;;;;;;;;;5050930;28;20437;-74
2022/06/14 14:28:41;;;;;;;2.63;1.10;;;;;;;;;;5048481;28;19916;-73
2022/06/14 14:31:14;;;;;;;1.25;0.93;;;;;;;;;;5050195;28;20498;-73
2022/06/14 14:34:14;;;;;;;1.08;1.00;;;;;;;;;;5049572;28;20025;-71
2022/06/14 14:36:46;;;;;;;2.60;1.13;;;;;;;;;;5030432;28;20063;-73
2022/06/14 14:39:32;;;;;;;3.85;1.23;;;;;;;;;;5046944;28;20033;-73
2022/06/14 14:42:39;;;;;;;5.38;1.15;;;;;;;;;;5049724;28;20395;-73
2022/06/14 14:45:18;;;;;;;1.67;0.93;;;;;;;;;;5051644;28;20275;-73
2022/06/14 14:48:07;;;;;;;2.00;1.10;;;;;;;;;;5049401;28;20037;-75
2022/06/14 14:50:48;;;;;;;1.23;1.00;;;;;;;;;;5043804;28;20032;-73
2022/06/14 14:53:32;;;;;;;3.88;1.30;;;;;;;;;;5049313;28;20028;-73
2022/06/14 14:56:03;;;;;;;3.03;1.20;;;;;;;;;;5049870;28;20044;-73
2022/06/14 14:58:39;;;;;;;1.87;0.90;;;;;;;;;;5047837;28;20033;-72
2022/06/14 15:07:11;;;;;;;1.77;1.27;;;;;;;;;;5049251;28;20044;-73
2022/06/14 15:09:41;;;;;;;2.40;1.10;;;;;;;;;;5048844;28;20025;-74
2022/06/14 15:12:20;;;;;;;1.58;0.90;;;;;;;;;;5051187;28;20706;-73
2022/06/14 15:15:00;;;;;;;1.77;0.95;;;;;;;;;;5049579;28;20066;-73
2022/06/14 15:20:16;;;;;;;1.20;1.10;;;;;;;;;;5049420;28;20035;-74
2022/06/14 15:22:47;;;;;;;1.77;1.05;;;;;;;;;;5048436;28;20311;-73
2022/06/14 15:25:13;;;;;;;1.63;1.10;;;;;;;;;;5049701;28;20402;-73
2022/06/14 15:27:52;;;;;;;2.47;1.00;;;;;;;;;;5047987;28;20025;-73
2022/06/14 15:30:37;;;;;;;4.40;1.20;;;;;;;;;;5041241;28;20021;-72
2022/06/14 15:33:32;;;;;;;2.13;1.00;;;;;;;;;;5049500;28;20044;-74
2022/06/14 15:35:59;;;;;;;1.60;1.05;;;;;;;;;;5046449;28;20161;-73
2022/06/14 15:38:26;;;;;;;2.35;1.00;;;;;;;;;;5048982;28;20024;-74
2022/06/14 15:41:13;;;;;;;1.10;1.00;;;;;;;;;;5049253;28;20064;-73
2022/06/14 15:43:40;;;;;;;4.18;1.10;;;;;;;;;;5051078;28;20025;-73
2022/06/14 15:46:20;;;;;;;1.58;1.15;;;;;;;;;;5048001;28;20048;-73
2022/06/14 15:49:03;;;;;;;1.70;1.08;;;;;;;;;;5048737;28;20029;-73
2022/06/14 15:51:31;;;;;;;2.08;1.02;;;;;;;;;;5049033;28;20156;-73
2022/06/14 15:53:56;;;;;;;2.10;1.20;;;;;;;;;;5050657;28;20036;-75
2022/06/14 15:56:26;;;;;;;2.65;1.17;;;;;;;;;;5042932;28;20486;-75
2022/06/14 15:58:55;;;;;;;1.23;1.00;;;;;;;;;;5049307;28;20036;-75
2022/06/14 16:01:40;;;;;;;2.55;0.90;;;;;;;;;;5028272;28;20021;-74
2022/06/14 16:04:25;;;;;;;2.67;1.15;;;;;;;;;;5041779;28;20053;-75
2022/06/14 16:07:02;;;;;;;1.58;1.00;;;;;;;;;;5048137;28;20471;-75
2022/06/14 16:09:38;;;;;;;2.58;1.02;;;;;;;;;;5048614;28;20033;-73
2022/06/14 16:12:09;;;;;;;1.65;1.13;;;;;;;;;;5047100;28;20417;-73
2022/06/14 16:14:49;;;;;;;2.28;1.05;;;;;;;;;;5047675;28;20039;-74
2022/06/14 16:17:25;;;;;;;1.63;1.13;;;;;;;;;;5047829;28;20039;-74
2022/06/14 16:20:20;;;;;;;1.30;0.85;;;;;;;;;;5048257;28;20025;-74